createdAt,value
2017-12-04T00:01:36.424Z,15.03
2017-12-04T00:04:03.913Z,15.70
2017-12-04T00:06:31.387Z,15.33
2017-12-04T00:08:58.884Z,15.20
2017-12-04T00:11:26.398Z,15.43
2017-12-04T00:13:53.889Z,14.97
2017-12-04T00:16:21.369Z,15.07
2017-12-04T00:18:48.871Z,14.13
2017-12-04T00:21:16.573Z,14.63
2017-12-04T00:23:44.057Z,14.60
2017-12-04T00:26:11.526Z,15.07
2017-12-04T00:28:39.013Z,14.43
2017-12-04T00:31:06.476Z,13.57
2017-12-04T00:33:33.969Z,14.67
2017-12-04T00:36:01.437Z,14.33
2017-12-04T00:38:28.920Z,13.87
2017-12-04T00:40:56.394Z,14.60
2017-12-04T00:43:23.901Z,14.17
2017-12-04T00:45:51.519Z,13.30
2017-12-04T00:48:19.016Z,14.77
2017-12-04T00:50:46.481Z,14.23
2017-12-04T00:53:13.974Z,14.93
2017-12-04T00:55:41.440Z,13.73
2017-12-04T00:58:08.925Z,13.33
2017-12-04T01:00:36.401Z,13.23
2017-12-04T01:03:04.805Z,13.27
2017-12-04T01:05:32.279Z,13.20
2017-12-04T01:07:59.773Z,14.37
2017-12-04T01:10:27.244Z,12.30
2017-12-04T01:12:54.732Z,12.50
2017-12-04T01:15:22.201Z,12.10
2017-12-04T01:17:49.668Z,13.50
2017-12-04T01:20:17.162Z,11.93
2017-12-04T01:22:44.648Z,12.67
2017-12-04T01:25:12.147Z,12.50
2017-12-04T01:27:39.641Z,11.67
2017-12-04T01:30:07.113Z,12.73
2017-12-04T01:32:34.576Z,12.33
2017-12-04T01:35:02.392Z,11.77
2017-12-04T01:37:29.859Z,12.53
2017-12-04T01:39:57.624Z,11.70
2017-12-04T01:42:25.131Z,12.63
2017-12-04T01:44:52.600Z,12.07
2017-12-04T01:47:20.065Z,12.83
2017-12-04T01:49:47.658Z,12.60
2017-12-04T01:52:15.138Z,12.40
2017-12-04T01:54:42.628Z,13.57
2017-12-04T01:57:10.100Z,13.80
2017-12-04T01:59:37.580Z,14.57
2017-12-04T02:02:05.046Z,14.67
2017-12-04T02:04:32.610Z,13.67
2017-12-04T02:07:00.077Z,13.20
2017-12-04T02:09:27.565Z,13.60
2017-12-04T02:11:55.056Z,14.97
2017-12-04T02:14:22.548Z,14.93
2017-12-04T02:16:50.016Z,15.70
2017-12-04T02:19:17.490Z,14.23
2017-12-04T02:21:44.972Z,15.07
2017-12-04T02:24:12.440Z,13.60
2017-12-04T02:26:39.921Z,14.13
2017-12-04T02:29:07.396Z,13.80
2017-12-04T02:31:34.884Z,15.10
2017-12-04T02:34:02.350Z,13.70
2017-12-04T02:36:29.837Z,14.10
2017-12-04T02:38:57.310Z,13.40
2017-12-04T02:41:24.804Z,13.53
2017-12-04T02:43:52.313Z,12.90
2017-12-04T02:46:19.805Z,12.70
2017-12-04T02:48:47.273Z,13.23
2017-12-04T02:51:14.761Z,13.80
2017-12-04T02:53:42.233Z,12.73
2017-12-04T02:56:09.742Z,14.30
2017-12-04T02:58:37.218Z,13.47
2017-12-04T03:01:04.701Z,14.83
2017-12-04T03:03:32.178Z,15.50
2017-12-04T03:05:59.669Z,14.33
2017-12-04T03:08:27.137Z,15.60
2017-12-04T03:10:54.640Z,14.83
2017-12-04T03:13:22.113Z,16.33
2017-12-04T03:15:49.632Z,16.17
2017-12-04T03:18:17.108Z,16.83
2017-12-04T03:20:44.595Z,17.73
2017-12-04T03:23:12.071Z,18.97
2017-12-04T03:25:39.556Z,17.17
2017-12-04T03:28:07.025Z,18.03
2017-12-04T03:30:34.517Z,18.53
2017-12-04T03:33:01.985Z,17.87
2017-12-04T03:35:29.473Z,17.33
2017-12-04T03:37:56.940Z,18.00
2017-12-04T03:40:24.422Z,18.20
2017-12-04T03:42:51.901Z,17.93
2017-12-04T03:45:19.388Z,16.97
2017-12-04T03:47:46.856Z,17.57
2017-12-04T03:50:14.347Z,17.57
2017-12-04T03:52:41.828Z,17.13
2017-12-04T03:55:09.321Z,17.20
2017-12-04T03:57:36.793Z,18.63
2017-12-04T04:00:04.292Z,16.93
2017-12-04T04:02:31.770Z,17.43
2017-12-04T04:04:59.257Z,17.73
2017-12-04T04:07:26.724Z,17.20
2017-12-04T04:09:54.215Z,17.77
2017-12-04T04:12:21.689Z,18.40
2017-12-04T04:14:49.193Z,17.47
2017-12-04T04:17:16.669Z,19.23
2017-12-04T04:19:44.152Z,18.27
2017-12-04T04:22:11.616Z,19.00
2017-12-04T04:24:39.125Z,19.10
2017-12-04T04:27:06.664Z,18.80
2017-12-04T04:29:34.145Z,18.63
2017-12-04T04:32:01.617Z,19.17
2017-12-04T04:34:29.100Z,18.33
2017-12-04T04:36:56.564Z,17.73
2017-12-04T04:39:24.055Z,17.67
2017-12-04T04:41:51.535Z,16.13
2017-12-04T04:44:19.022Z,18.07
2017-12-04T04:46:46.495Z,16.23
2017-12-04T04:49:13.977Z,18.17
2017-12-04T04:51:41.449Z,17.23
2017-12-04T04:54:08.941Z,19.97
2017-12-04T04:56:36.405Z,18.03
2017-12-04T04:59:03.909Z,18.60
2017-12-04T05:01:31.385Z,18.57
2017-12-04T05:03:58.877Z,18.33
2017-12-04T05:06:26.344Z,18.90
2017-12-04T05:08:53.841Z,16.93
2017-12-04T05:11:21.307Z,19.23
2017-12-04T05:13:48.793Z,18.07
2017-12-04T05:16:16.301Z,18.23
2017-12-04T05:18:43.802Z,16.60
2017-12-04T05:21:11.269Z,19.80
2017-12-04T05:23:38.793Z,19.83
2017-12-04T05:26:06.265Z,18.60
2017-12-04T05:28:33.755Z,18.73
2017-12-04T05:31:01.226Z,19.43
2017-12-04T05:33:28.708Z,19.57
2017-12-04T05:35:56.181Z,19.20
2017-12-04T05:38:23.668Z,19.47
2017-12-04T05:40:51.140Z,19.13
2017-12-04T05:43:18.669Z,17.30
2017-12-04T05:45:46.116Z,20.53
2017-12-04T05:48:13.584Z,19.93
2017-12-04T05:50:41.081Z,20.03
2017-12-04T05:53:08.554Z,20.00
2017-12-04T05:55:36.041Z,18.57
2017-12-04T05:58:03.520Z,21.00
2017-12-04T06:00:31.017Z,19.00
2017-12-04T06:02:58.484Z,19.47
2017-12-04T06:05:25.985Z,20.63
2017-12-04T06:07:53.456Z,20.07
2017-12-04T06:10:20.944Z,20.60
2017-12-04T06:12:48.408Z,20.07
2017-12-04T06:15:15.924Z,21.23
2017-12-04T06:17:43.389Z,20.13
2017-12-04T06:20:10.872Z,21.03
2017-12-04T06:22:38.349Z,19.77
2017-12-04T06:25:05.841Z,18.03
2017-12-04T06:27:33.312Z,20.57
2017-12-04T06:30:00.793Z,19.33
2017-12-04T06:32:28.260Z,20.87
2017-12-04T06:34:55.741Z,21.13
2017-12-04T06:37:23.206Z,23.00
2017-12-04T06:39:50.692Z,20.20
2017-12-04T06:42:18.157Z,19.70
2017-12-04T06:44:45.665Z,19.77
2017-12-04T06:47:13.137Z,22.20
2017-12-04T06:49:40.623Z,22.60
2017-12-04T06:52:08.088Z,24.53
2017-12-04T06:54:35.578Z,20.63
2017-12-04T06:57:03.058Z,21.27
2017-12-04T06:59:30.542Z,20.37
2017-12-04T07:01:58.015Z,21.07
2017-12-04T07:04:25.509Z,19.63
2017-12-04T07:06:52.992Z,18.63
2017-12-04T07:09:20.477Z,19.40
2017-12-04T07:11:47.948Z,19.47
2017-12-04T07:14:15.425Z,20.90
2017-12-04T07:16:42.912Z,19.30
2017-12-04T07:19:10.381Z,33.67
2017-12-04T07:21:37.884Z,54.13
2017-12-04T07:24:05.365Z,39.67
2017-12-04T07:26:32.849Z,33.23
2017-12-04T07:29:00.321Z,20.47
2017-12-04T07:31:27.825Z,27.77
2017-12-04T07:33:55.292Z,20.47
2017-12-04T07:36:22.777Z,20.60
2017-12-04T07:38:50.249Z,18.90
2017-12-04T07:41:18.228Z,18.33
2017-12-04T07:43:45.697Z,16.83
2017-12-04T07:46:13.184Z,17.60
2017-12-04T07:48:40.649Z,17.10
2017-12-04T07:51:08.132Z,15.53
2017-12-04T07:53:35.597Z,15.87
2017-12-04T07:56:03.098Z,16.47
2017-12-04T07:58:30.599Z,15.03
2017-12-04T08:00:58.089Z,16.23
2017-12-04T08:03:25.585Z,17.07
2017-12-04T08:05:53.069Z,16.67
2017-12-04T08:08:20.537Z,17.50
2017-12-04T08:10:48.020Z,18.23
2017-12-04T08:13:15.497Z,18.10
2017-12-04T08:15:42.985Z,17.10
2017-12-04T08:18:10.449Z,18.13
2017-12-04T08:20:37.929Z,15.13
2017-12-04T08:23:05.429Z,16.67
2017-12-04T08:25:32.908Z,16.07
2017-12-04T08:28:00.389Z,17.07
2017-12-04T08:30:27.881Z,18.53
2017-12-04T08:32:55.369Z,16.70
2017-12-04T08:35:22.861Z,16.13
2017-12-04T08:37:50.324Z,16.00
2017-12-04T08:40:17.817Z,16.03
2017-12-04T08:42:45.284Z,15.70
2017-12-04T08:45:12.753Z,15.03
2017-12-04T08:47:40.241Z,15.67
2017-12-04T08:50:07.757Z,14.67
2017-12-04T08:52:35.241Z,15.20
2017-12-04T08:55:02.717Z,14.03
2017-12-04T08:57:30.211Z,14.40
2017-12-04T08:59:57.672Z,13.30
2017-12-04T09:02:25.153Z,14.60
2017-12-04T09:04:52.625Z,13.60
2017-12-04T09:07:20.108Z,13.37
2017-12-04T09:09:47.577Z,13.10
2017-12-04T09:12:15.062Z,12.43
2017-12-04T09:14:42.620Z,13.10
2017-12-04T09:17:10.100Z,12.60
2017-12-04T09:19:37.571Z,12.87
2017-12-04T09:22:05.052Z,12.10
2017-12-04T09:24:32.512Z,12.40
2017-12-04T09:27:00.017Z,13.00
2017-12-04T09:29:27.483Z,12.80
2017-12-04T09:31:54.973Z,12.23
2017-12-04T09:34:22.441Z,12.10
2017-12-04T09:36:49.928Z,11.83
2017-12-04T09:39:17.393Z,12.43
2017-12-04T09:41:44.881Z,14.00
2017-12-04T09:44:12.344Z,13.67
2017-12-04T09:46:39.842Z,12.30
2017-12-04T09:49:07.309Z,12.33
2017-12-04T09:51:34.812Z,11.63
2017-12-04T09:54:02.277Z,12.80
2017-12-04T09:56:29.785Z,12.47
2017-12-04T09:58:57.251Z,13.07
2017-12-04T10:01:24.741Z,13.07
2017-12-04T10:03:52.214Z,12.57
2017-12-04T10:06:19.697Z,12.63
2017-12-04T10:08:47.156Z,12.70
2017-12-04T10:11:14.642Z,12.63
2017-12-04T10:13:42.109Z,13.13
2017-12-04T10:16:09.589Z,12.83
2017-12-04T10:18:37.053Z,14.37
2017-12-04T10:21:04.537Z,13.43
2017-12-04T10:23:32.006Z,14.00
2017-12-04T10:25:59.497Z,12.17
2017-12-04T10:28:26.984Z,14.70
2017-12-04T10:30:54.505Z,14.50
2017-12-04T10:33:21.976Z,17.20
2017-12-04T10:35:49.463Z,14.97
2017-12-04T10:38:16.930Z,15.03
2017-12-04T10:40:44.417Z,13.97
2017-12-04T10:43:11.881Z,14.27
2017-12-04T10:45:39.460Z,16.70
2017-12-04T10:48:06.926Z,15.20
2017-12-04T10:50:34.415Z,14.47
2017-12-04T10:53:01.892Z,14.50
2017-12-04T10:55:29.361Z,14.33
2017-12-04T10:57:56.847Z,16.77
2017-12-04T11:00:24.314Z,15.03
2017-12-04T11:02:51.807Z,14.40
2017-12-04T11:05:19.277Z,13.77
2017-12-04T11:07:46.756Z,13.83
2017-12-04T11:10:14.224Z,14.00
2017-12-04T11:12:41.722Z,13.40
2017-12-04T11:15:09.201Z,13.33
2017-12-04T11:17:36.684Z,12.93
2017-12-04T11:20:04.149Z,13.77
2017-12-04T11:22:31.628Z,14.43
2017-12-04T11:24:59.098Z,13.60
2017-12-04T11:27:26.584Z,12.73
2017-12-04T11:29:54.053Z,13.90
2017-12-04T11:32:21.537Z,11.53
2017-12-04T11:34:49.025Z,11.80
2017-12-04T11:37:16.513Z,12.03
2017-12-04T11:39:43.976Z,11.60
2017-12-04T11:42:11.464Z,13.03
2017-12-04T11:44:38.926Z,12.10
2017-12-04T11:47:06.413Z,12.90
2017-12-04T11:49:33.884Z,12.37
2017-12-04T11:52:01.364Z,12.47
2017-12-04T11:54:28.844Z,15.27
2017-12-04T11:56:56.336Z,17.53
2017-12-04T11:59:23.801Z,13.10
2017-12-04T12:01:51.286Z,15.20
2017-12-04T12:04:18.825Z,12.57
2017-12-04T12:06:46.304Z,11.13
2017-12-04T12:09:13.768Z,11.17
2017-12-04T12:11:41.249Z,11.73
2017-12-04T12:14:08.712Z,10.60
2017-12-04T12:16:36.197Z,10.83
2017-12-04T12:19:03.652Z,9.87
2017-12-04T12:21:31.137Z,10.40
2017-12-04T12:23:58.593Z,9.97
2017-12-04T12:26:26.124Z,10.00
2017-12-04T12:28:53.603Z,10.50
2017-12-04T12:31:21.085Z,10.60
2017-12-04T12:33:48.552Z,10.23
2017-12-04T12:36:16.145Z,10.20
2017-12-04T12:38:43.613Z,10.47
2017-12-04T12:41:11.083Z,11.10
2017-12-04T12:43:38.562Z,9.47
2017-12-04T12:46:06.032Z,10.73
2017-12-04T12:48:33.524Z,10.47
2017-12-04T12:51:00.992Z,10.23
2017-12-04T12:53:28.485Z,10.20
2017-12-04T12:55:55.949Z,10.47
2017-12-04T12:58:23.432Z,10.33
2017-12-04T13:00:50.897Z,10.33
2017-12-04T13:03:18.381Z,10.37
2017-12-04T13:05:45.846Z,10.80
2017-12-04T13:08:13.339Z,10.57
2017-12-04T13:10:40.801Z,10.70
2017-12-04T13:13:08.285Z,11.07
2017-12-04T13:15:35.903Z,10.70
2017-12-04T13:18:03.382Z,9.93
2017-12-04T13:20:30.887Z,11.60
2017-12-04T13:22:58.373Z,10.37
2017-12-04T13:25:25.840Z,12.87
2017-12-04T13:27:53.329Z,11.60
2017-12-04T13:30:20.800Z,13.10
2017-12-04T13:33:00.161Z,12.97
2017-12-04T13:35:39.524Z,12.70
2017-12-04T13:38:07.111Z,13.07
2017-12-04T13:40:34.585Z,13.90
2017-12-04T13:43:02.053Z,13.27
2017-12-04T13:45:29.545Z,13.50
2017-12-04T13:47:57.009Z,14.63
2017-12-04T13:50:24.488Z,14.33
2017-12-04T13:52:51.957Z,14.20
2017-12-04T13:55:19.445Z,13.00
2017-12-04T13:57:46.913Z,14.30
2017-12-04T14:00:14.395Z,14.07
2017-12-04T14:02:41.893Z,14.73
2017-12-04T14:05:09.357Z,13.23
2017-12-04T14:07:36.841Z,14.47
2017-12-04T14:10:04.330Z,14.93
2017-12-04T14:12:31.792Z,14.67
2017-12-04T14:14:59.273Z,14.27
2017-12-04T14:17:26.736Z,13.97
2017-12-04T14:19:54.217Z,15.13
2017-12-04T14:22:21.681Z,13.07
2017-12-04T14:24:49.160Z,15.83
2017-12-04T14:27:16.668Z,13.83
2017-12-04T14:29:44.138Z,14.40
2017-12-04T14:32:11.604Z,14.80
2017-12-04T14:34:39.090Z,14.97
2017-12-04T14:37:06.562Z,15.60
2017-12-04T14:39:34.045Z,16.23
2017-12-04T14:42:01.518Z,15.90
2017-12-04T14:44:29.048Z,15.13
2017-12-04T14:46:56.534Z,16.97
2017-12-04T14:49:24.021Z,16.60
2017-12-04T14:51:51.493Z,17.50
2017-12-04T14:54:18.973Z,16.43
2017-12-04T14:56:46.445Z,15.67
2017-12-04T14:59:13.934Z,17.47
2017-12-04T15:01:41.400Z,16.90
2017-12-04T15:04:08.885Z,18.43
2017-12-04T15:06:36.348Z,18.00
2017-12-04T15:09:03.841Z,16.33
2017-12-04T15:11:31.304Z,16.37
2017-12-04T15:13:58.796Z,17.73
2017-12-04T15:16:26.263Z,17.80
2017-12-04T15:18:53.727Z,17.17
2017-12-04T15:21:21.266Z,16.93
2017-12-04T15:23:48.736Z,17.37
2017-12-04T15:26:16.217Z,17.00
2017-12-04T15:28:43.682Z,16.90
2017-12-04T15:31:11.161Z,16.73
2017-12-04T15:33:38.621Z,17.23
2017-12-04T15:36:06.952Z,17.07
2017-12-04T15:38:34.417Z,16.87
2017-12-04T15:41:01.889Z,16.47
2017-12-04T15:43:29.378Z,16.70
2017-12-04T15:45:56.867Z,18.07
2017-12-04T15:48:24.353Z,17.37
2017-12-04T15:50:51.816Z,17.30
2017-12-04T15:53:19.305Z,17.60
2017-12-04T15:55:46.777Z,16.03
2017-12-04T15:58:14.263Z,17.77
2017-12-04T16:00:41.753Z,16.80
2017-12-04T16:03:09.253Z,17.30
2017-12-04T16:05:36.719Z,17.10
2017-12-04T16:08:04.207Z,18.47
2017-12-04T16:10:31.674Z,17.13
2017-12-04T16:12:59.157Z,18.30
2017-12-04T16:15:26.620Z,19.57
2017-12-04T16:17:54.089Z,17.07
2017-12-04T16:20:21.574Z,18.40
2017-12-04T16:22:49.045Z,17.70
2017-12-04T16:25:16.516Z,17.23
2017-12-04T16:27:44.013Z,17.90
2017-12-04T16:30:11.477Z,18.30
2017-12-04T16:32:39.155Z,17.33
2017-12-04T16:35:06.621Z,19.93
2017-12-04T16:37:34.100Z,18.33
2017-12-04T16:40:01.679Z,18.73
2017-12-04T16:42:29.167Z,16.93
2017-12-04T16:44:56.638Z,18.10
2017-12-04T16:47:24.125Z,18.50
2017-12-04T16:49:51.588Z,17.00
2017-12-04T16:52:19.085Z,18.37
2017-12-04T16:54:46.559Z,16.73
2017-12-04T16:57:14.036Z,16.60
2017-12-04T16:59:41.556Z,18.67
2017-12-04T17:02:09.051Z,17.27
2017-12-04T17:04:36.534Z,18.93
2017-12-04T17:07:04.107Z,19.87
2017-12-04T17:09:31.577Z,20.37
2017-12-04T17:11:59.041Z,17.20
2017-12-04T17:14:26.543Z,17.50
2017-12-04T17:16:54.016Z,16.90
2017-12-04T17:19:21.501Z,17.23
2017-12-04T17:21:48.968Z,17.00
2017-12-04T17:24:16.526Z,18.07
2017-12-04T17:26:44.004Z,19.00
2017-12-04T17:29:11.490Z,16.87
2017-12-04T17:31:38.968Z,16.10
2017-12-04T17:34:06.433Z,25.90
2017-12-04T17:36:33.896Z,15.93
2017-12-04T17:39:01.381Z,17.23
2017-12-04T17:41:28.845Z,19.60
2017-12-04T17:43:56.313Z,18.07
2017-12-04T17:46:23.839Z,17.13
2017-12-04T17:48:51.309Z,17.40
2017-12-04T17:51:18.777Z,16.30
2017-12-04T17:53:46.314Z,15.97
2017-12-04T17:56:13.792Z,15.73
2017-12-04T17:58:41.279Z,16.77
2017-12-04T18:01:08.745Z,16.20
2017-12-04T18:03:36.313Z,16.20
2017-12-04T18:06:03.797Z,16.07
2017-12-04T18:08:31.276Z,17.00
2017-12-04T18:10:58.749Z,18.10
2017-12-04T18:13:26.228Z,16.33
2017-12-04T18:15:53.692Z,17.73
2017-12-04T18:18:21.156Z,15.03
2017-12-04T18:20:48.648Z,17.57
2017-12-04T18:23:16.117Z,17.87
2017-12-04T18:25:43.600Z,17.83
2017-12-04T18:28:11.061Z,17.73
2017-12-04T18:30:38.545Z,17.50
2017-12-04T18:33:06.009Z,17.87
2017-12-04T18:35:33.494Z,17.40
2017-12-04T18:38:00.956Z,18.27
2017-12-04T18:40:28.441Z,17.83
2017-12-04T18:42:55.920Z,20.67
2017-12-04T18:45:23.425Z,17.90
2017-12-04T18:47:50.889Z,18.37
2017-12-04T18:50:18.368Z,20.07
2017-12-04T18:52:45.829Z,19.40
2017-12-04T18:55:13.320Z,20.57
2017-12-04T18:57:40.785Z,21.43
2017-12-04T19:00:08.374Z,20.23
2017-12-04T19:02:35.845Z,18.47
2017-12-04T19:05:03.349Z,19.40
2017-12-04T19:07:30.817Z,20.90
2017-12-04T19:09:58.297Z,19.37
2017-12-04T19:12:25.765Z,20.97
2017-12-04T19:14:53.253Z,22.50
2017-12-04T19:17:20.726Z,19.70
2017-12-04T19:19:48.211Z,20.77
2017-12-04T19:22:15.676Z,21.83
2017-12-04T19:24:43.162Z,18.03
2017-12-04T19:27:10.660Z,20.90
2017-12-04T19:29:38.141Z,21.73
2017-12-04T19:32:05.608Z,20.53
2017-12-04T19:34:33.089Z,22.43
2017-12-04T19:37:00.556Z,21.63
2017-12-04T19:39:28.124Z,20.77
2017-12-04T19:41:55.588Z,20.87
2017-12-04T19:44:23.069Z,21.57
2017-12-04T19:46:50.564Z,18.63
2017-12-04T19:49:18.105Z,21.83
2017-12-04T19:51:45.605Z,20.43
2017-12-04T19:54:13.090Z,21.80
2017-12-04T19:56:40.607Z,21.80
2017-12-04T19:59:08.139Z,20.83
2017-12-04T20:01:35.609Z,21.00
2017-12-04T20:04:03.184Z,22.20
2017-12-04T20:06:30.657Z,20.60
2017-12-04T20:08:58.150Z,21.93
2017-12-04T20:11:25.617Z,24.87
2017-12-04T20:13:53.081Z,23.80
2017-12-04T20:16:20.571Z,24.33
2017-12-04T20:18:48.040Z,23.87
2017-12-04T20:21:15.589Z,23.67
2017-12-04T20:23:43.057Z,23.53
2017-12-04T20:26:10.552Z,22.87
2017-12-04T20:28:38.029Z,22.73
2017-12-04T20:31:05.583Z,21.60
2017-12-04T20:33:33.082Z,22.60
2017-12-04T20:36:00.573Z,21.63
2017-12-04T20:38:28.040Z,22.37
2017-12-04T20:40:55.526Z,19.07
2017-12-04T20:43:22.989Z,24.13
2017-12-04T20:45:50.482Z,23.33
2017-12-04T20:48:17.961Z,21.60
2017-12-04T20:50:45.485Z,22.50
2017-12-04T20:53:12.974Z,23.30
2017-12-04T20:55:40.461Z,22.80
2017-12-04T20:58:07.944Z,22.97
2017-12-04T21:00:35.424Z,23.33
2017-12-04T21:03:02.942Z,23.37
2017-12-04T21:05:30.549Z,21.90
2017-12-04T21:07:58.021Z,23.30
2017-12-04T21:10:37.469Z,23.87
2017-12-04T21:13:16.869Z,20.07
2017-12-04T21:15:52.949Z,23.27
2017-12-04T21:18:20.420Z,21.83
2017-12-04T21:20:47.900Z,23.43
2017-12-04T21:23:15.361Z,23.30
2017-12-04T21:25:42.847Z,20.70
2017-12-04T21:28:10.314Z,20.83
2017-12-04T21:30:37.797Z,21.27
2017-12-04T21:33:05.256Z,21.97
2017-12-04T21:35:32.737Z,22.40
2017-12-04T21:38:00.262Z,20.80
2017-12-04T21:40:27.816Z,20.70
2017-12-04T21:42:55.459Z,20.57
2017-12-04T21:45:23.031Z,21.17
2017-12-04T21:47:50.496Z,21.03
2017-12-04T21:50:17.993Z,21.23
2017-12-04T21:52:45.606Z,20.80
2017-12-04T21:55:13.092Z,22.43
2017-12-04T21:57:40.552Z,20.13
2017-12-04T22:00:08.373Z,20.23
2017-12-04T22:02:35.837Z,20.77
2017-12-04T22:05:03.316Z,22.40
2017-12-04T22:07:30.781Z,21.03
2017-12-04T22:09:58.317Z,21.17
2017-12-04T22:12:25.897Z,22.13
2017-12-04T22:14:53.324Z,19.73
2017-12-04T22:17:21.023Z,21.03
2017-12-04T22:19:48.504Z,20.00
2017-12-04T22:22:15.998Z,20.03
2017-12-04T22:24:43.460Z,20.33
2017-12-04T22:27:10.976Z,22.07
2017-12-04T22:29:38.490Z,22.30
2017-12-04T22:32:05.969Z,21.20
2017-12-04T22:34:33.432Z,23.03
2017-12-04T22:37:00.913Z,20.37
2017-12-04T22:39:28.377Z,21.83
2017-12-04T22:41:55.865Z,21.53
2017-12-04T22:44:23.450Z,22.27
2017-12-04T22:46:50.941Z,20.83
2017-12-04T22:49:18.405Z,21.33
2017-12-04T22:51:45.880Z,21.57
2017-12-04T22:54:13.341Z,23.60
2017-12-04T22:56:40.832Z,23.57
2017-12-04T22:59:08.301Z,23.63
2017-12-04T23:01:35.905Z,22.63
2017-12-04T23:04:03.988Z,19.90
2017-12-04T23:06:31.469Z,20.63
2017-12-04T23:08:58.932Z,20.27
2017-12-04T23:11:27.367Z,20.20
2017-12-04T23:13:54.841Z,21.90
2017-12-04T23:16:22.322Z,20.80
2017-12-04T23:18:49.788Z,20.73
2017-12-04T23:21:17.277Z,20.03
2017-12-04T23:23:44.740Z,21.23
2017-12-04T23:26:12.217Z,18.80
2017-12-04T23:28:39.679Z,18.97
2017-12-04T23:31:07.157Z,19.00
2017-12-04T23:33:34.626Z,18.73
2017-12-04T23:36:02.109Z,19.50
2017-12-04T23:38:29.568Z,20.70
2017-12-04T23:40:57.057Z,20.40
2017-12-04T23:43:24.525Z,19.97
2017-12-04T23:45:52.004Z,19.70
2017-12-04T23:48:19.460Z,19.97
2017-12-04T23:50:46.941Z,22.33
2017-12-04T23:53:14.406Z,19.60
2017-12-04T23:55:41.889Z,20.23
2017-12-04T23:58:09.349Z,20.43
